Nova Ponte, Brazil
Current Conditions -  °F | °C
As of 10:20 PM on Sunday 23 Nov 2014 (Local Time) from SBUL Reporting Station
Overcast Overcast  
Wind Chill: 70°   Ceiling: 300
Heat Index: 70°   Visibility: 6mi
Dew Point: 66°   Wind: 7mph
Humidity: 88%   Direction: 80°E
Pressure: 30.06"   Gusts: NA
Location:  19.15°S, 47.67°W
Report Text: SBUL 240020Z 08006KT 9999 OVC003 21/19 Q1018
Loading
Personal Weather Stations






























Interactive Weather Map New forecast layout! Learn more

10-Day Weather Forecast

Advertisements
Track Severe Weather on mobile